Time;durP1;ratioP1;P1;durP2;ratioP2;P2;SDS_P1;SDS_P2;PMS_P1;PMS_P2;Temp;Humidity;BMP_temperature;BMP_pressure;BME280_temperature;BME280_humidity;BME280_pressure;Samples;Min_cycle;Max_cycle;Signal;HPM_P1;HPM_P2
2021/12/04 00:00:59;;;;;;;5.7;4;;;;;;;-1.57;87.8418;929.1376;;;;
2021/12/04 00:03:24;;;;;;;8.5;3.9;;;;;;;-1.52;87.91699;929.0792;;;;
2021/12/04 00:05:53;;;;;;;6.7;3.4;;;;;;;-1.56;87.9873;929.1005;;;;
2021/12/04 00:08:14;;;;;;;6.7;3.6;;;;;;;-1.37;87.80469;929.0862;;;;
2021/12/04 00:10:39;;;;;;;6.7;3.5;;;;;;;-1.46;88.39648;929.0108;;;;
2021/12/04 00:13:05;;;;;;;5.4;3.3;;;;;;;-1.43;88.49121;928.94;;;;
2021/12/04 00:15:39;;;;;;;6.2;3.7;;;;;;;-1.44;88.25586;928.8406;;;;
2021/12/04 00:18:04;;;;;;;5.6;3.1;;;;;;;-1.52;88.57227;928.6805;;;;
2021/12/04 00:20:30;;;;;;;6.5;3.7;;;;;;;-1.5;88.61133;928.7455;;;;
2021/12/04 00:22:58;;;;;;;5.9;3.1;;;;;;;-1.51;88.61816;928.6099;;;;
2021/12/04 00:25:21;;;;;;;5.6;3.5;;;;;;;-1.6;88.82324;928.6097;;;;
2021/12/04 00:27:47;;;;;;;4;2.8;;;;;;;-1.47;88.9502;928.5325;;;;
2021/12/04 00:30:15;;;;;;;3.7;2.1;;;;;;;-1.48;88.06934;928.4392;;;;
2021/12/04 00:32:42;;;;;;;4.2;2.2;;;;;;;-1.42;85.92871;928.3642;;;;
2021/12/04 00:35:13;;;;;;;4.9;2.8;;;;;;;-1.25;86.73047;928.3279;;;;
2021/12/04 00:37:51;;;;;;;3.5;2.1;;;;;;;-1.24;86.92285;928.3378;;;;
2021/12/04 00:49:36;;;;;;;5.7;3.2;;;;;;;-1.26;87.58301;928.0747;;;;
2021/12/04 00:52:01;;;;;;;3.8;2.5;;;;;;;-1.2;87.60742;928.0255;;;;
2021/12/04 00:54:26;;;;;;;4.6;2.6;;;;;;;-1.09;86.61914;927.9637;;;;
2021/12/04 00:56:51;;;;;;;10.9;7.2;;;;;;;-1.1;86.62695;927.8837;;;;
2021/12/04 00:59:16;;;;;;;4.2;2.6;;;;;;;-1.01;86.94727;927.8449;;;;
2021/12/04 01:01:41;;;;;;;5.7;3.1;;;;;;;-1.16;87.10449;927.8419;;;;
2021/12/04 01:04:07;;;;;;;6.9;2.8;;;;;;;-1.1;87.7168;927.7136;;;;
2021/12/04 01:06:33;;;;;;;4.2;2.8;;;;;;;-1.28;89.08789;927.7022;;;;
2021/12/04 01:08:58;;;;;;;4;2.5;;;;;;;-1.28;89.18848;927.6475;;;;
2021/12/04 01:11:25;;;;;;;4.9;2.3;;;;;;;-1.17;87.58887;927.6703;;;;
2021/12/04 01:13:50;;;;;;;3.8;2.2;;;;;;;-1.18;87.25586;927.6545;;;;
2021/12/04 01:16:19;;;;;;;4.2;2.4;;;;;;;-1.1;88.16211;927.5974;;;;
2021/12/04 01:18:49;;;;;;;3.2;2.3;;;;;;;-1.08;87.69922;927.5597;;;;
2021/12/04 01:21:18;;;;;;;2.6;1.7;;;;;;;-1.13;87.93359;927.5009;;;;
2021/12/04 01:23:43;;;;;;;3;1.9;;;;;;;-1.08;88.4541;927.3923;;;;
2021/12/04 01:26:10;;;;;;;3.8;2.2;;;;;;;-1.17;89.26855;927.4441;;;;
2021/12/04 01:28:35;;;;;;;3.8;2.1;;;;;;;-1.25;89.89551;927.4512;;;;
2021/12/04 01:31:03;;;;;;;2.7;2.1;;;;;;;-1.09;89.27441;927.4233;;;;
2021/12/04 01:33:32;;;;;;;4.7;1.8;;;;;;;-1.08;89.12109;927.345;;;;
2021/12/04 01:35:59;;;;;;;4;2.3;;;;;;;-1.2;89.24023;927.3259;;;;
2021/12/04 01:38:24;;;;;;;3.2;2.1;;;;;;;-1.21;89.14941;927.3158;;;;
2021/12/04 01:40:52;;;;;;;4.1;2.2;;;;;;;-1.28;89.08789;927.2328;;;;
2021/12/04 01:43:17;;;;;;;2.4;1.8;;;;;;;-1.2;89.2627;927.2307;;;;
2021/12/04 01:45:44;;;;;;;1.6;1.3;;;;;;;-1.2;88.52734;927.0927;;;;
2021/12/04 01:48:10;;;;;;;4;1.8;;;;;;;-1.1;88.56152;927.0904;;;;
2021/12/04 01:50:39;;;;;;;2.7;1.8;;;;;;;-1.14;89.3877;926.9836;;;;
2021/12/04 01:53:04;;;;;;;3.3;1.6;;;;;;;-1.03;89.20801;926.9178;;;;
2021/12/04 01:55:29;;;;;;;2.8;1.4;;;;;;;-1;89.01563;926.887;;;;
2021/12/04 01:57:54;;;;;;;2.9;1.4;;;;;;;-0.88;88.18457;926.8619;;;;
2021/12/04 02:00:19;;;;;;;2.5;1.5;;;;;;;-0.72;88.00586;926.8128;;;;
2021/12/04 02:02:44;;;;;;;2.1;1.5;;;;;;;-0.64;87.72266;926.7896;;;;
2021/12/04 02:05:10;;;;;;;3.4;1.7;;;;;;;-0.69;87.63672;926.6639;;;;
2021/12/04 02:07:35;;;;;;;1.7;1.5;;;;;;;-0.71;87.87402;926.842;;;;
2021/12/04 02:10:00;;;;;;;1.6;1.4;;;;;;;-0.68;87.75977;926.7179;;;;
2021/12/04 02:12:25;;;;;;;2.7;1.3;;;;;;;-0.64;87.59082;926.7672;;;;
2021/12/04 02:14:50;;;;;;;2.4;1.5;;;;;;;-0.69;87.70215;926.7216;;;;
2021/12/04 02:17:21;;;;;;;2.3;1.7;;;;;;;-0.78;88.2832;926.8008;;;;
2021/12/04 02:19:49;;;;;;;2;1.2;;;;;;;-0.77;88.80762;926.8161;;;;
2021/12/04 02:28:08;;;;;;;2.8;1.6;;;;;;;-0.91;90.10254;926.8195;;;;
2021/12/04 02:30:25;;;;;;;3.7;2;;;;;;;-0.86;90.04492;926.8391;;;;
2021/12/04 02:32:57;;;;;;;3.3;2.1;;;;;;;-0.86;89.91211;926.8627;;;;
2021/12/04 02:35:25;;;;;;;2.4;1.3;;;;;;;-0.81;89.94727;926.856;;;;
2021/12/04 02:37:48;;;;;;;3.6;2.2;;;;;;;-0.55;89.75684;926.6412;;;;
2021/12/04 02:40:14;;;;;;;5.7;3.4;;;;;;;-0.24;88.68652;926.7205;;;;
2021/12/04 02:42:41;;;;;;;2.7;1.8;;;;;;;-0.27;89.0459;926.8494;;;;
2021/12/04 02:45:09;;;;;;;4.4;2.4;;;;;;;-0.13;88.11719;926.8125;;;;
2021/12/04 02:47:34;;;;;;;5.1;2.7;;;;;;;-0.21;87.44727;926.7834;;;;
2021/12/04 02:50:04;;;;;;;9.3;5.1;;;;;;;-0.27;87.71191;926.8136;;;;
2021/12/04 02:52:26;;;;;;;11.9;5.9;;;;;;;-0.19;87.62695;926.7012;;;;
2021/12/04 02:55:23;;;;;;;11.7;5.4;;;;;;;-0.1;87.5127;926.6922;;;;
2021/12/04 02:57:52;;;;;;;8.3;4.6;;;;;;;-0.01;87.38574;926.6855;;;;
2021/12/04 03:00:18;;;;;;;7.6;4;;;;;;;0.08;86.87207;926.597;;;;
2021/12/04 03:02:43;;;;;;;7.6;4;;;;;;;0.21;86.9873;926.5313;;;;
2021/12/04 03:05:09;;;;;;;3.8;2.5;;;;;;;0.05;86.69727;926.5358;;;;
2021/12/04 03:07:33;;;;;;;2.5;1.7;;;;;;;0.02;85.39746;926.4722;;;;
2021/12/04 03:09:58;;;;;;;3.6;1.6;;;;;;;0.18;85.65527;926.2648;;;;
2021/12/04 03:12:24;;;;;;;6.1;3.3;;;;;;;0.2;86.09375;926.3558;;;;
2021/12/04 03:14:51;;;;;;;1.9;1.1;;;;;;;0.06;85.94141;926.4092;;;;
2021/12/04 03:17:20;;;;;;;2.5;1.3;;;;;;;0.13;87.0498;926.478;;;;
2021/12/04 03:19:51;;;;;;;3;1.3;;;;;;;0.1;86.0957;926.3667;;;;
2021/12/04 03:22:15;;;;;;;1.4;1;;;;;;;0.15;86.6416;926.3862;;;;
2021/12/04 03:24:45;;;;;;;1.1;1;;;;;;;0.17;84.6377;926.2942;;;;
2021/12/04 03:27:17;;;;;;;1.4;1.2;;;;;;;0.13;86.28125;926.3152;;;;
2021/12/04 03:29:48;;;;;;;1.5;1.3;;;;;;;0.15;87.23047;926.177;;;;
2021/12/04 03:32:23;;;;;;;1.6;1.5;;;;;;;-0.18;88.7334;926.2388;;;;
2021/12/04 03:41:57;;;;;;;2.4;1.5;;;;;;;-0.19;88.40625;926.0059;;;;
2021/12/04 03:44:22;;;;;;;2.8;1.5;;;;;;;-0.17;88.40137;925.9799;;;;
2021/12/04 03:46:48;;;;;;;4.5;1.7;;;;;;;0.14;87.99707;925.9045;;;;
2021/12/04 03:49:13;;;;;;;2;1.6;;;;;;;0.21;87.80078;925.8684;;;;
2021/12/04 03:51:38;;;;;;;2.8;1.3;;;;;;;0.24;87.37207;925.7548;;;;
2021/12/04 03:54:04;;;;;;;2.4;1.3;;;;;;;0.3;86.93848;925.7997;;;;
2021/12/04 03:56:31;;;;;;;2.2;1.2;;;;;;;0.38;86.57617;925.7587;;;;
2021/12/04 03:58:54;;;;;;;1.3;1.2;;;;;;;0.4;85.68652;925.713;;;;
2021/12/04 04:02:31;;;;;;;1.5;1;;;;;;;0.47;85.36816;925.7169;;;;
2021/12/04 04:04:56;;;;;;;1.6;1.2;;;;;;;0.59;85.20215;925.7065;;;;
2021/12/04 04:07:25;;;;;;;2.1;1.1;;;;;;;0.57;85.52246;925.6694;;;;
2021/12/04 04:09:50;;;;;;;1.4;0.8;;;;;;;0.66;85.09277;925.6569;;;;
2021/12/04 04:12:21;;;;;;;2.2;1.3;;;;;;;0.75;84.44238;925.642;;;;
2021/12/04 04:14:51;;;;;;;2.2;1.1;;;;;;;0.79;83.8252;925.6414;;;;
2021/12/04 04:17:22;;;;;;;3.1;1.6;;;;;;;0.69;84.20703;925.5872;;;;
2021/12/04 04:19:51;;;;;;;3.8;1.8;;;;;;;0.88;84.33398;925.5311;;;;
2021/12/04 04:22:16;;;;;;;4.1;1.7;;;;;;;0.78;84.49316;925.5769;;;;
2021/12/04 04:24:45;;;;;;;2.6;1.3;;;;;;;0.66;85.61719;925.5034;;;;
2021/12/04 04:27:10;;;;;;;3.2;1.6;;;;;;;0.78;85.95508;925.5535;;;;
2021/12/04 04:29:40;;;;;;;2.2;1.1;;;;;;;0.83;86.0752;925.5203;;;;
2021/12/04 04:32:05;;;;;;;1.5;1;;;;;;;0.8;84.78711;925.4826;;;;
2021/12/04 04:34:32;;;;;;;1;0.9;;;;;;;0.93;85.50391;925.5417;;;;
2021/12/04 04:37:07;;;;;;;0.9;0.8;;;;;;;1.09;84.41992;925.4753;;;;
2021/12/04 04:39:41;;;;;;;1.5;0.8;;;;;;;1.29;83.90137;925.3791;;;;
2021/12/04 04:59:43;;;;;;;0.6;0.6;;;;;;;1.53;82.48633;925.355;;;;
2021/12/04 05:10:39;;;;;;;2.8;1.4;;;;;;;1.25;86.26074;925.3624;;;;
2021/12/04 05:12:52;;;;;;;1.3;1.1;;;;;;;1.1;87.16016;925.3141;;;;
2021/12/04 05:15:16;;;;;;;2.3;1.5;;;;;;;1.15;87.79492;925.287;;;;
2021/12/04 05:17:54;;;;;;;1.9;1.4;;;;;;;1.23;88.08008;925.2406;;;;
2021/12/04 05:20:12;;;;;;;3.2;1.2;;;;;;;1.29;88.25;925.1746;;;;
2021/12/04 05:26:26;;;;;;;2;1.3;;;;;;;1.28;89.35156;925.3176;;;;
2021/12/04 05:28:51;;;;;;;1.3;1.1;;;;;;;1.25;90.17285;925.1939;;;;
2021/12/04 05:31:18;;;;;;;1.9;1.4;;;;;;;1.25;89.77051;925.0567;;;;
2021/12/04 05:33:43;;;;;;;1.1;1;;;;;;;1.36;89.1123;925.0795;;;;
2021/12/04 05:36:09;;;;;;;1;0.9;;;;;;;1.42;88.65625;925.0992;;;;
2021/12/04 05:38:34;;;;;;;1.8;0.9;;;;;;;1.72;88.29297;925.0837;;;;
2021/12/04 05:41:01;;;;;;;0.6;0.6;;;;;;;1.78;87.30859;925.0325;;;;
2021/12/04 05:43:26;;;;;;;1.1;0.6;;;;;;;1.84;88.33105;925.0278;;;;
2021/12/04 05:45:57;;;;;;;1;0.6;;;;;;;1.81;88.52637;924.9331;;;;
2021/12/04 05:48:23;;;;;;;5.6;0.9;;;;;;;2.03;88.21191;924.995;;;;
2021/12/04 05:53:18;;;;;;;1.2;0.9;;;;;;;2.27;86.83984;924.8842;;;;
2021/12/04 05:55:43;;;;;;;3;1.9;;;;;;;2.2;87.88965;924.9957;;;;
2021/12/04 05:57:59;;;;;;;2.8;2;;;;;;;1.95;89.30273;924.9585;;;;
2021/12/04 06:00:28;;;;;;;2.1;1.3;;;;;;;1.72;90.10547;925.0039;;;;
2021/12/04 06:02:53;;;;;;;2.6;1.4;;;;;;;1.71;90.57324;924.9558;;;;
2021/12/04 06:05:22;;;;;;;2.9;1.7;;;;;;;1.86;90.36914;924.9348;;;;
2021/12/04 06:07:50;;;;;;;2;1;;;;;;;1.81;91.27637;924.9433;;;;
2021/12/04 06:10:16;;;;;;;1.8;1.2;;;;;;;1.91;91.5;924.8777;;;;
2021/12/04 06:12:44;;;;;;;0.7;0.7;;;;;;;1.96;92.23633;924.8284;;;;
2021/12/04 06:15:12;;;;;;;1.4;0.8;;;;;;;1.93;91.24609;924.776;;;;
2021/12/04 06:17:44;;;;;;;2.6;1.1;;;;;;;1.93;90.83203;924.7463;;;;
2021/12/04 06:22:41;;;;;;;3.8;2.1;;;;;;;2.21;90.35449;924.7403;;;;
2021/12/04 06:25:02;;;;;;;4.4;2.6;;;;;;;2.14;91.17871;924.7144;;;;
2021/12/04 06:27:29;;;;;;;5.5;4.2;;;;;;;2.17;91.35449;924.6552;;;;
2021/12/04 06:29:54;;;;;;;4.6;3.1;;;;;;;2.09;91.77344;924.7048;;;;
2021/12/04 06:32:20;;;;;;;4.3;3.3;;;;;;;1.97;92.53125;924.7008;;;;
2021/12/04 06:34:44;;;;;;;6.4;4.4;;;;;;;1.72;94.16504;924.6595;;;;
2021/12/04 06:37:10;;;;;;;7;4.7;;;;;;;1.91;94.00781;924.6675;;;;
2021/12/04 06:39:35;;;;;;;10;5.9;;;;;;;2.03;93.68555;924.6683;;;;
2021/12/04 06:42:00;;;;;;;8.6;5.1;;;;;;;2.03;94.07715;924.5623;;;;
2021/12/04 06:44:26;;;;;;;6.1;3.4;;;;;;;2.12;93.77246;924.5711;;;;
2021/12/04 06:46:50;;;;;;;3.7;2;;;;;;;1.98;94.77051;924.5972;;;;
2021/12/04 06:49:21;;;;;;;4.8;2.2;;;;;;;1.91;94.98145;924.5513;;;;
2021/12/04 06:51:47;;;;;;;4.7;2.5;;;;;;;1.76;96.08594;924.4821;;;;
2021/12/04 06:54:13;;;;;;;6;3.3;;;;;;;1.81;96.1543;924.5814;;;;
2021/12/04 06:56:36;;;;;;;4.8;3.1;;;;;;;1.85;95.99512;924.5366;;;;
2021/12/04 06:59:04;;;;;;;7.4;3.7;;;;;;;2.05;95.53809;924.4356;;;;
2021/12/04 07:01:26;;;;;;;4.7;2.9;;;;;;;2.15;94.87793;924.4171;;;;
2021/12/04 07:03:57;;;;;;;7.5;3.7;;;;;;;2.12;94.74805;924.3663;;;;
2021/12/04 07:06:57;;;;;;;4.4;3.1;;;;;;;2.04;95.23438;924.379;;;;
2021/12/04 07:09:22;;;;;;;3.7;2.9;;;;;;;1.95;95.64844;924.3981;;;;
2021/12/04 07:11:47;;;;;;;5.5;3.1;;;;;;;1.85;96.04004;924.4497;;;;
2021/12/04 07:14:12;;;;;;;5.3;3.3;;;;;;;2.01;95.66211;924.3549;;;;
2021/12/04 07:16:38;;;;;;;6;3.9;;;;;;;2.1;95.16797;924.3517;;;;
2021/12/04 07:19:03;;;;;;;9.6;5.2;;;;;;;2.07;95.03809;924.308;;;;
2021/12/04 07:21:31;;;;;;;9;4.4;;;;;;;2.18;95.21973;924.3022;;;;
2021/12/04 07:23:56;;;;;;;7.2;3.9;;;;;;;2.2;95.06934;924.2729;;;;
2021/12/04 07:26:24;;;;;;;6.3;3.9;;;;;;;2.25;95.63867;924.2566;;;;
2021/12/04 07:28:49;;;;;;;8.2;4.1;;;;;;;2.29;95.33594;924.3311;;;;
2021/12/04 07:31:14;;;;;;;4.4;3.4;;;;;;;2.29;94.91016;924.2981;;;;
2021/12/04 07:33:39;;;;;;;7;4.4;;;;;;;2.43;94.17871;924.3204;;;;
2021/12/04 07:36:05;;;;;;;6.8;4.8;;;;;;;2.43;93.99902;924.3069;;;;
2021/12/04 07:38:30;;;;;;;6.5;4.5;;;;;;;2.49;93.84277;924.2294;;;;
2021/12/04 07:40:56;;;;;;;7.7;4.3;;;;;;;2.34;93.97949;924.1922;;;;
2021/12/04 07:43:25;;;;;;;8.8;5.6;;;;;;;2.19;95.2666;924.245;;;;
2021/12/04 07:45:50;;;;;;;8.5;5.3;;;;;;;2.27;95.16309;924.1847;;;;
2021/12/04 07:48:17;;;;;;;11.4;6.7;;;;;;;2.29;95.1543;924.1528;;;;
2021/12/04 07:50:42;;;;;;;10.4;6.4;;;;;;;2.24;95.42383;924.2054;;;;
2021/12/04 07:53:09;;;;;;;9.8;6.5;;;;;;;2.22;95.58594;924.0698;;;;
2021/12/04 07:55:34;;;;;;;10.3;6.1;;;;;;;2.22;96.02441;924.0865;;;;
2021/12/04 07:58:02;;;;;;;9.8;7.8;;;;;;;2.3;96.02051;924.1342;;;;
2021/12/04 08:00:27;;;;;;;17.9;11.1;;;;;;;2.38;95.71191;924.1221;;;;
2021/12/04 08:02:52;;;;;;;16.6;9.7;;;;;;;2.49;95.25488;924.1415;;;;
2021/12/04 08:05:19;;;;;;;14.2;9.5;;;;;;;2.38;95.8916;924.1261;;;;
2021/12/04 08:07:44;;;;;;;11.9;8.7;;;;;;;2.35;95.96387;924.1303;;;;
2021/12/04 08:10:11;;;;;;;11.1;8;;;;;;;2.47;95.55371;924.0776;;;;
2021/12/04 08:12:37;;;;;;;9.7;6.9;;;;;;;2.51;95.42676;924.0726;;;;
2021/12/04 08:15:03;;;;;;;11.1;6.9;;;;;;;2.47;95.55371;924.1011;;;;
2021/12/04 08:17:30;;;;;;;10.5;7.1;;;;;;;2.41;95.94434;924.1788;;;;
2021/12/04 08:19:58;;;;;;;14.5;9.5;;;;;;;2.4;98.40527;924.2512;;;;
2021/12/04 08:22:23;;;;;;;16.6;9.9;;;;;;;2.38;97.51563;924.2704;;;;
2021/12/04 08:24:51;;;;;;;12.7;8.1;;;;;;;2.49;96.41992;924.2177;;;;
2021/12/04 08:27:16;;;;;;;13;7.9;;;;;;;2.4;96.52539;924.2544;;;;
2021/12/04 08:29:41;;;;;;;12.7;8.1;;;;;;;2.61;96.14648;924.1036;;;;
2021/12/04 08:32:09;;;;;;;9.3;6;;;;;;;2.67;95.81152;923.9883;;;;
2021/12/04 08:34:34;;;;;;;10.5;6.6;;;;;;;2.88;95.0752;924.1128;;;;
2021/12/04 08:37:03;;;;;;;11.1;6.4;;;;;;;3.08;94.2998;923.9533;;;;
2021/12/04 08:39:27;;;;;;;15.1;9.2;;;;;;;2.85;95.00879;924.0652;;;;
2021/12/04 08:41:53;;;;;;;21.8;12;;;;;;;2.84;95.2334;924.0486;;;;
2021/12/04 08:44:18;;;;;;;21;12.1;;;;;;;2.77;95.84473;924.0472;;;;
2021/12/04 08:46:44;;;;;;;21.2;12.9;;;;;;;2.82;96.24902;924.0144;;;;
2021/12/04 08:49:12;;;;;;;19.2;11.9;;;;;;;2.89;96.23242;924.0564;;;;
2021/12/04 08:51:37;;;;;;;16.4;11;;;;;;;2.95;95.75098;924.095;;;;
2021/12/04 08:54:04;;;;;;;16.6;11.5;;;;;;;2.75;96.17676;924.0186;;;;
2021/12/04 08:56:29;;;;;;;17.6;10.3;;;;;;;2.83;96.08105;923.9863;;;;
2021/12/04 08:58:54;;;;;;;17;10.5;;;;;;;2.78;96.12695;923.9662;;;;
2021/12/04 09:01:23;;;;;;;18.1;11.8;;;;;;;2.71;96.33691;923.9199;;;;
2021/12/04 09:03:44;;;;;;;10.2;7.3;;;;;;;2.62;96.58594;923.8979;;;;
2021/12/04 09:06:09;;;;;;;10.5;6.9;;;;;;;2.62;97.32324;923.9058;;;;
2021/12/04 09:08:35;;;;;;;9.3;6.7;;;;;;;2.64;97.55371;923.9046;;;;
2021/12/04 09:11:02;;;;;;;9.3;6.4;;;;;;;2.67;97.56934;923.9922;;;;
2021/12/04 09:13:28;;;;;;;8.3;4.8;;;;;;;2.62;97.88574;923.9522;;;;
2021/12/04 09:16:00;;;;;;;9.1;6.4;;;;;;;2.62;98.29883;924.0441;;;;
2021/12/04 09:18:27;;;;;;;8.5;5.2;;;;;;;2.5;98.92285;924.0003;;;;
2021/12/04 09:20:54;;;;;;;9.1;5.1;;;;;;;2.57;99.27637;924.0486;;;;
2021/12/04 09:23:21;;;;;;;6.9;4.9;;;;;;;2.57;99.375;924.0415;;;;
2021/12/04 09:25:48;;;;;;;19.5;13;;;;;;;2.66;99.49707;924;;;;
2021/12/04 09:28:20;;;;;;;10;6.9;;;;;;;2.87;98.59277;924.0411;;;;
2021/12/04 09:35:49;;;;;;;16.6;10.4;;;;;;;2.79;98.31543;924.027;;;;
2021/12/04 10:00:56;;;;;;;10.5;6.8;;;;;;;3.33;96.72363;923.7461;;;;
2021/12/04 10:06:07;;;;;;;11.1;7.8;;;;;;;3.27;96.65527;923.6863;;;;
2021/12/04 10:13:25;;;;;;;5.3;3.9;;;;;;;3.29;97.50977;923.6102;;;;
2021/12/04 10:18:06;;;;;;;8.8;5.9;;;;;;;3.52;97.58594;923.5338;;;;
2021/12/04 10:20:24;;;;;;;7.6;5.7;;;;;;;3.79;96.49121;923.4765;;;;
2021/12/04 10:22:46;;;;;;;7.3;4.9;;;;;;;3.9;95.96484;923.4306;;;;
2021/12/04 10:32:01;;;;;;;5;4.1;;;;;;;3.96;95.69727;923.4635;;;;
2021/12/04 10:32:35;;;;;;;7.9;5.5;;;;;;;4.3;93.90723;923.3979;;;;
2021/12/04 10:34:47;;;;;;;12.6;8.6;;;;;;;4.37;93.18945;923.2803;;;;
2021/12/04 10:37:13;;;;;;;5.6;3.9;;;;;;;4.24;93.46484;923.2194;;;;
2021/12/04 10:39:38;;;;;;;6.4;4.8;;;;;;;4.11;94.23633;923.2046;;;;
2021/12/04 10:42:07;;;;;;;6.3;4.4;;;;;;;3.98;94.88281;923.2039;;;;
2021/12/04 10:44:28;;;;;;;10.9;6.5;;;;;;;3.81;96.33789;923.1007;;;;
2021/12/04 10:46:56;;;;;;;11.6;9.1;;;;;;;4.14;95.65918;923.1631;;;;
2021/12/04 10:49:23;;;;;;;13.5;9.8;;;;;;;4.17;95.33984;923.1342;;;;
2021/12/04 10:51:50;;;;;;;15.5;11.5;;;;;;;4.24;95.44531;923.0886;;;;
2021/12/04 10:54:11;;;;;;;19.2;13.6;;;;;;;4.48;94.31836;923.0112;;;;
2021/12/04 10:56:54;;;;;;;17.6;12.6;;;;;;;4.65;93.49805;922.9456;;;;
2021/12/04 11:01:38;;;;;;;15.3;11.9;;;;;;;4.91;91.95508;922.8181;;;;
2021/12/04 11:04:01;;;;;;;13.2;9.5;;;;;;;4.88;91.97168;922.8716;;;;
2021/12/04 11:06:40;;;;;;;14.7;10.3;;;;;;;4.95;91.5459;922.8641;;;;
2021/12/04 11:19:00;;;;;;;29.7;18.3;;;;;;;5.13;93.63867;922.597;;;;
2021/12/04 11:23:53;;;;;;;21.8;15;;;;;;;5.21;91.27539;922.5306;;;;
2021/12/04 11:26:29;;;;;;;16.2;11;;;;;;;5.21;91.74902;922.4517;;;;
2021/12/04 11:29:02;;;;;;;18.6;11.5;;;;;;;5.26;91.83984;922.4629;;;;
2021/12/04 11:38:30;;;;;;;13.8;9.5;;;;;;;5.2;91.38574;922.2083;;;;
2021/12/04 11:40:49;;;;;;;12;7.7;;;;;;;5.17;91.93457;922.1806;;;;
2021/12/04 11:43:02;;;;;;;16.2;10.9;;;;;;;5.59;91.00879;922.1641;;;;
2021/12/04 11:45:28;;;;;;;13;9.4;;;;;;;5.86;88.96289;922.0631;;;;
2021/12/04 11:47:52;;;;;;;15.4;10.7;;;;;;;5.83;88.95801;922.1035;;;;
2021/12/04 11:50:17;;;;;;;28.1;15.5;;;;;;;5.91;89.76367;922.0145;;;;
2021/12/04 11:52:42;;;;;;;24.6;12.8;;;;;;;6.2;88.26563;921.9459;;;;
2021/12/04 11:55:09;;;;;;;18.6;10.7;;;;;;;6.1;87.24023;921.9903;;;;
2021/12/04 11:57:33;;;;;;;18.3;10.8;;;;;;;5.83;89.40723;922.0347;;;;
2021/12/04 12:00:02;;;;;;;16.4;8.9;;;;;;;5.83;89.8252;921.9336;;;;
2021/12/04 12:02:29;;;;;;;9.3;5.6;;;;;;;5.59;90.06934;921.9612;;;;
2021/12/04 12:04:54;;;;;;;12.2;6.5;;;;;;;5.67;90.63965;921.8882;;;;
2021/12/04 12:07:20;;;;;;;19;10;;;;;;;5.69;89.49414;921.8701;;;;
2021/12/04 12:09:46;;;;;;;23;11.7;;;;;;;5.51;90.88965;921.8869;;;;
2021/12/04 12:12:13;;;;;;;15.7;8.3;;;;;;;5.6;90.59082;921.8444;;;;
2021/12/04 12:14:39;;;;;;;14.8;9.4;;;;;;;5.86;90.17188;921.7963;;;;
2021/12/04 12:17:04;;;;;;;10.3;6;;;;;;;5.62;89.07227;921.7958;;;;
2021/12/04 12:19:37;;;;;;;11.6;7.1;;;;;;;5.44;90.10645;921.8008;;;;
2021/12/04 12:22:04;;;;;;;11.4;7.6;;;;;;;5.35;90.94727;921.7388;;;;
2021/12/04 12:24:35;;;;;;;13.5;9;;;;;;;5.61;91.10254;921.7192;;;;
2021/12/04 12:27:10;;;;;;;8.8;5.8;;;;;;;5.61;89.74805;921.6663;;;;
2021/12/04 12:32:47;;;;;;;13;8.2;;;;;;;5.83;89.37598;921.688;;;;
2021/12/04 12:34:09;;;;;;;26.2;15.1;;;;;;;6.08;88.75977;921.5921;;;;
2021/12/04 12:36:31;;;;;;;11.1;7.5;;;;;;;6.04;88.70703;921.5645;;;;
2021/12/04 12:38:56;;;;;;;16;9.8;;;;;;;6.05;88.80176;921.5377;;;;
2021/12/04 12:41:21;;;;;;;13.5;8.9;;;;;;;5.93;89.95215;921.505;;;;
2021/12/04 12:43:47;;;;;;;15.3;9.5;;;;;;;6.05;89.69238;921.5432;;;;
2021/12/04 12:46:12;;;;;;;10.6;7.3;;;;;;;5.95;89.69531;921.524;;;;
2021/12/04 12:48:39;;;;;;;9.9;6.1;;;;;;;6.03;89.8125;921.5692;;;;
2021/12/04 12:51:04;;;;;;;8.3;5.4;;;;;;;6.14;89.2832;921.5959;;;;
2021/12/04 12:53:32;;;;;;;9.1;6;;;;;;;6.32;88.55176;921.6308;;;;
2021/12/04 12:55:57;;;;;;;5.7;4;;;;;;;6.44;87.93164;921.6277;;;;
2021/12/04 12:58:25;;;;;;;8;4.5;;;;;;;6.09;87.85938;921.6379;;;;
2021/12/04 13:13:01;;;;;;;9;6.5;;;;;;;5.88;89.73535;921.7488;;;;
2021/12/04 13:15:33;;;;;;;10.8;7.5;;;;;;;5.62;91.01367;921.7042;;;;
2021/12/04 13:17:58;;;;;;;9.7;7.3;;;;;;;5.47;91.99707;921.6476;;;;
2021/12/04 13:20:26;;;;;;;5.6;4.3;;;;;;;5.38;92.0918;921.6259;;;;
2021/12/04 13:22:52;;;;;;;6.9;4.7;;;;;;;5.43;92.5625;921.5703;;;;
2021/12/04 13:29:05;;;;;;;10.6;7.6;;;;;;;5.48;92.59863;921.4986;;;;
2021/12/04 13:31:37;;;;;;;10;6.4;;;;;;;5.48;92.74316;921.4394;;;;
2021/12/04 13:33:58;;;;;;;6.3;4.3;;;;;;;5.5;92.74707;921.4836;;;;
2021/12/04 13:36:23;;;;;;;5.3;3.6;;;;;;;5.3;93.34766;921.4412;;;;
2021/12/04 13:38:52;;;;;;;3.9;3.5;;;;;;;5.25;94.37305;921.4269;;;;
2021/12/04 13:41:17;;;;;;;5.9;4.3;;;;;;;5.16;95.07715;921.3909;;;;
2021/12/04 13:43:41;;;;;;;4.4;3.8;;;;;;;5.08;95.50977;921.4767;;;;
2021/12/04 13:46:07;;;;;;;9.5;6.1;;;;;;;5.09;95.55664;921.431;;;;
2021/12/04 13:48:32;;;;;;;14.7;9.2;;;;;;;4.98;96.19727;921.4588;;;;
2021/12/04 13:50:57;;;;;;;12.1;8.6;;;;;;;5.04;96.33594;921.3536;;;;
2021/12/04 13:53:22;;;;;;;12.4;7.7;;;;;;;5.18;95.96191;921.2711;;;;
2021/12/04 13:55:47;;;;;;;14.9;8.5;;;;;;;5.27;95.38086;921.3117;;;;
2021/12/04 13:58:16;;;;;;;13.4;9.3;;;;;;;5.17;95.30469;921.2403;;;;
2021/12/04 14:00:42;;;;;;;17.3;11;;;;;;;4.98;95.78027;921.2648;;;;
2021/12/04 14:03:08;;;;;;;12.8;8.5;;;;;;;5.02;95.9375;921.2581;;;;
2021/12/04 14:05:33;;;;;;;10.7;7.4;;;;;;;5.18;95.45508;921.2349;;;;
2021/12/04 14:10:41;;;;;;;14.7;10.6;;;;;;;5.23;94.75488;921.0631;;;;
2021/12/04 14:13:09;;;;;;;9.4;6.6;;;;;;;5.09;95.16211;921.0224;;;;
2021/12/04 14:16:31;;;;;;;8;6;;;;;;;4.99;96.25781;920.9612;;;;
2021/12/04 14:18:56;;;;;;;8;4.7;;;;;;;5;96.22656;921.0369;;;;
2021/12/04 14:21:24;;;;;;;6;3.3;;;;;;;5.01;96.19434;921.0436;;;;
2021/12/04 14:23:49;;;;;;;6.3;4.6;;;;;;;5.12;96.38574;921.0588;;;;
2021/12/04 14:26:20;;;;;;;9.2;6.1;;;;;;;5.06;96.14648;921.0854;;;;
2021/12/04 14:28:47;;;;;;;29.3;16.8;;;;;;;4.8;96.88867;921.0314;;;;
2021/12/04 14:31:13;;;;;;;20.4;13.6;;;;;;;4.64;97.82324;920.9664;;;;
2021/12/04 14:33:38;;;;;;;15.9;10.2;;;;;;;4.71;98.47949;920.9957;;;;
2021/12/04 14:38:42;;;;;;;18.9;12.9;;;;;;;5.06;96.57617;920.9095;;;;
2021/12/04 14:41:07;;;;;;;21.1;13.6;;;;;;;5.12;95.90332;921.0643;;;;
2021/12/04 14:43:35;;;;;;;27.6;17.4;;;;;;;5.06;95.78711;921.1052;;;;
2021/12/04 14:45:58;;;;;;;32.2;19.8;;;;;;;4.98;96.35547;921.1559;;;;
2021/12/04 14:48:26;;;;;;;33;20.4;;;;;;;5;96.08887;921.1111;;;;
2021/12/04 14:50:50;;;;;;;39.3;23.6;;;;;;;4.96;96.0127;921.0889;;;;
2021/12/04 14:53:16;;;;;;;52;27.9;;;;;;;4.66;97.38574;921.0948;;;;
2021/12/04 14:55:41;;;;;;;44.2;24.7;;;;;;;4.55;98.22754;921.1155;;;;
2021/12/04 14:58:06;;;;;;;34.4;21.1;;;;;;;4.59;98.25;921.118;;;;
2021/12/04 15:00:34;;;;;;;18.9;10.1;;;;;;;4.47;98.5918;921.175;;;;
2021/12/04 15:02:59;;;;;;;20.5;12.2;;;;;;;4.62;98.54883;921.2397;;;;
2021/12/04 15:05:24;;;;;;;17.6;9.1;;;;;;;4.54;98.31836;921.2935;;;;
2021/12/04 15:07:49;;;;;;;19.9;12.5;;;;;;;4.54;98.59961;921.2746;;;;
2021/12/04 15:10:14;;;;;;;20.5;12.7;;;;;;;4.78;98.04297;921.3806;;;;
2021/12/04 15:12:42;;;;;;;19.5;12.3;;;;;;;4.65;98.28711;921.3069;;;;
2021/12/04 15:15:07;;;;;;;25.9;14.5;;;;;;;4.77;97.72754;921.3735;;;;
2021/12/04 15:17:33;;;;;;;26.3;15.5;;;;;;;4.54;98.49609;921.3416;;;;
2021/12/04 15:19:57;;;;;;;20.6;12.4;;;;;;;4.61;98.63477;921.3154;;;;
2021/12/04 15:22:28;;;;;;;16.2;10.2;;;;;;;4.72;98.16797;921.4136;;;;
2021/12/04 15:24:49;;;;;;;26.9;15.6;;;;;;;4.77;97.76172;921.4578;;;;
2021/12/04 15:27:21;;;;;;;32.7;17;;;;;;;4.78;97.40137;921.4484;;;;
2021/12/04 15:29:44;;;;;;;27;16.1;;;;;;;4.76;97.08398;921.5154;;;;
2021/12/04 15:32:10;;;;;;;28.6;17.5;;;;;;;4.7;97.23828;921.5931;;;;
2021/12/04 15:34:37;;;;;;;26.7;16.9;;;;;;;4.78;96.90527;921.6685;;;;
2021/12/04 15:37:03;;;;;;;22.9;15;;;;;;;4.81;96.77832;921.7083;;;;
2021/12/04 15:39:30;;;;;;;26.5;16.4;;;;;;;4.7;96.78809;921.6404;;;;
2021/12/04 15:42:10;;;;;;;28.8;17.9;;;;;;;4.77;96.78125;921.726;;;;
2021/12/04 15:44:38;;;;;;;25;16.3;;;;;;;4.73;96.7041;921.7092;;;;
2021/12/04 15:46:52;;;;;;;21.1;13;;;;;;;4.62;97.43359;921.6386;;;;
2021/12/04 15:53:59;;;;;;;31.3;18.7;;;;;;;4.71;97.56738;921.7288;;;;
2021/12/04 15:56:24;;;;;;;23.4;13.8;;;;;;;4.76;97.7373;921.8079;;;;
2021/12/04 15:58:50;;;;;;;20.1;12.6;;;;;;;4.82;96.94043;921.8526;;;;
2021/12/04 16:01:16;;;;;;;16.5;10.8;;;;;;;4.91;96.38379;921.9373;;;;
2021/12/04 16:03:42;;;;;;;18.8;11.2;;;;;;;4.95;95.9209;922.0219;;;;
2021/12/04 16:06:11;;;;;;;16.4;9.6;;;;;;;4.98;95.71289;921.9612;;;;
2021/12/04 16:08:32;;;;;;;22;14.9;;;;;;;5.12;94.94434;921.9888;;;;
2021/12/04 16:10:59;;;;;;;17.7;10.7;;;;;;;5.12;94.2793;921.928;;;;
2021/12/04 16:13:24;;;;;;;14.8;9.4;;;;;;;4.82;95.62207;921.8975;;;;
2021/12/04 16:16:03;;;;;;;9.9;6.5;;;;;;;4.81;96.10254;922.0204;;;;
2021/12/04 16:18:33;;;;;;;9.2;5.6;;;;;;;4.77;96.64648;922.0499;;;;
2021/12/04 16:21:01;;;;;;;10.2;6.7;;;;;;;4.84;96.34473;921.978;;;;
2021/12/04 16:23:26;;;;;;;14.5;11.1;;;;;;;4.78;96.38965;921.9263;;;;
2021/12/04 16:25:56;;;;;;;11.2;8.9;;;;;;;4.78;96.48828;921.8323;;;;
2021/12/04 16:28:40;;;;;;;28.6;21.2;;;;;;;4.78;96.5;921.8315;;;;
2021/12/04 16:31:09;;;;;;;30.6;22.1;;;;;;;4.7;97.2041;921.8912;;;;
2021/12/04 16:33:29;;;;;;;52.5;34.9;;;;;;;4.68;96.99805;921.8903;;;;
2021/12/04 16:35:50;;;;;;;11.9;8.2;;;;;;;4.73;96.79395;921.9078;;;;
2021/12/04 16:38:05;;;;;;;18.9;15.1;;;;;;;4.52;97.58008;921.9177;;;;
2021/12/04 16:40:32;;;;;;;11.6;8.6;;;;;;;4.67;98.13086;921.9005;;;;
2021/12/04 16:43:01;;;;;;;11.8;9.3;;;;;;;4.71;97.76953;921.9283;;;;
2021/12/04 16:45:23;;;;;;;13.1;9.9;;;;;;;4.81;97.15918;921.9384;;;;
2021/12/04 16:47:50;;;;;;;12.7;10.1;;;;;;;4.89;96.3125;921.9578;;;;
2021/12/04 16:50:16;;;;;;;11.7;7.9;;;;;;;4.63;96.94043;922.0911;;;;
2021/12/04 16:55:20;;;;;;;12.3;8.7;;;;;;;4.89;95.82813;922.0302;;;;
2021/12/04 16:57:46;;;;;;;29.3;15.9;;;;;;;4.99;95.46875;922.0701;;;;